createdAt,value
2023-03-20T00:02:07.012Z,10.49
2023-03-20T00:04:34.847Z,10.28
2023-03-20T00:07:03.886Z,10.60
2023-03-20T00:09:31.515Z,10.84
2023-03-20T00:11:59.277Z,10.73
2023-03-20T00:14:26.647Z,10.06
2023-03-20T00:16:54.183Z,10.34
2023-03-20T00:19:26.411Z,10.33
2023-03-20T00:21:55.531Z,10.61
2023-03-20T00:24:23.666Z,10.11
2023-03-20T00:26:53.172Z,10.56
2023-03-20T00:29:30.914Z,10.76
2023-03-20T00:31:59.313Z,10.61
2023-03-20T00:34:32.691Z,10.65
2023-03-20T00:37:00.254Z,10.72
2023-03-20T00:39:30.455Z,10.72
2023-03-20T00:42:04.136Z,10.82
2023-03-20T00:44:42.843Z,10.75
2023-03-20T00:47:18.789Z,10.58
2023-03-20T00:49:48.138Z,10.67
2023-03-20T00:52:17.679Z,10.73
2023-03-20T00:54:44.928Z,10.78
2023-03-20T00:57:27.912Z,10.85
2023-03-20T01:00:17.266Z,10.70
2023-03-20T01:02:46.056Z,11.13
2023-03-20T01:05:13.823Z,11.24
2023-03-20T01:07:41.679Z,11.26
2023-03-20T01:10:11.697Z,11.07
2023-03-20T01:12:41.039Z,10.83
2023-03-20T01:15:23.763Z,10.95
2023-03-20T01:17:52.971Z,10.97
2023-03-20T01:20:24.358Z,11.18
2023-03-20T01:22:52.115Z,11.13
2023-03-20T01:25:19.342Z,11.20
2023-03-20T01:27:52.541Z,11.35
2023-03-20T01:30:26.815Z,11.37
2023-03-20T01:32:55.666Z,11.30
2023-03-20T01:35:25.962Z,11.35
2023-03-20T01:37:53.728Z,11.33
2023-03-20T01:40:57.325Z,11.32
2023-03-20T01:43:29.286Z,11.48
2023-03-20T01:46:11.597Z,11.45
2023-03-20T01:48:52.320Z,11.54
2023-03-20T01:51:26.049Z,11.55
2023-03-20T01:54:04.548Z,11.51
2023-03-20T01:56:37.632Z,11.48
2023-03-20T01:59:17.079Z,11.53
2023-03-20T02:01:45.519Z,11.43
2023-03-20T02:04:15.717Z,11.47
2023-03-20T02:07:07.339Z,11.37
2023-03-20T02:09:49.854Z,11.45
2023-03-20T02:12:23.475Z,11.53
2023-03-20T02:14:53.230Z,11.38
2023-03-20T02:17:42.688Z,11.51
2023-03-20T02:20:23.170Z,11.52
2023-03-20T02:23:05.628Z,11.54
2023-03-20T02:26:29.235Z,11.57
2023-03-20T02:29:18.553Z,11.61
2023-03-20T02:32:20.885Z,11.50
2023-03-20T02:35:18.494Z,11.35
2023-03-20T02:38:04.606Z,11.22
2023-03-20T02:40:46.052Z,11.18
2023-03-20T02:43:43.235Z,10.91
2023-03-20T02:46:19.809Z,11.05
2023-03-20T02:49:33.766Z,11.22
2023-03-20T02:52:09.513Z,11.35
2023-03-20T02:55:14.193Z,11.39
2023-03-20T02:57:50.836Z,11.36
2023-03-20T03:00:36.719Z,11.32
2023-03-20T03:03:31.166Z,11.25
2023-03-20T03:06:24.689Z,11.22
2023-03-20T03:09:17.616Z,11.10
2023-03-20T03:11:50.615Z,11.11
2023-03-20T03:14:29.379Z,11.16
2023-03-20T03:16:59.250Z,11.15
2023-03-20T03:19:29.543Z,11.15
2023-03-20T03:21:57.200Z,11.12
2023-03-20T03:24:40.233Z,11.35
2023-03-20T03:27:21.813Z,11.36
2023-03-20T03:29:56.663Z,11.50
2023-03-20T03:32:35.934Z,11.49
2023-03-20T03:35:07.052Z,11.49
2023-03-20T03:37:58.765Z,11.52
2023-03-20T03:40:41.554Z,11.37
2023-03-20T03:43:23.087Z,11.31
2023-03-20T03:45:58.097Z,11.28
2023-03-20T03:48:32.767Z,11.23
2023-03-20T03:51:05.863Z,11.23
2023-03-20T03:53:44.303Z,11.26
2023-03-20T03:56:14.330Z,11.28
2023-03-20T03:59:05.130Z,11.34
2023-03-20T04:01:35.829Z,11.36
2023-03-20T04:04:10.540Z,11.36
2023-03-20T04:06:37.863Z,11.39
2023-03-20T04:09:07.268Z,11.21
2023-03-20T04:11:35.830Z,11.21
2023-03-20T04:14:03.613Z,11.24
2023-03-20T04:16:31.557Z,11.22
2023-03-20T04:18:59.267Z,11.22
2023-03-20T04:21:26.691Z,11.23
2023-03-20T04:23:54.197Z,11.22
2023-03-20T04:26:23.559Z,11.26
2023-03-20T04:28:51.681Z,11.36
2023-03-20T04:31:43.148Z,11.39
2023-03-20T04:34:16.898Z,11.35
2023-03-20T04:37:08.507Z,11.37
2023-03-20T04:39:54.544Z,11.29
2023-03-20T04:42:21.951Z,11.30
2023-03-20T04:44:51.554Z,11.47
2023-03-20T04:47:18.927Z,11.63
2023-03-20T04:49:46.877Z,11.59
2023-03-20T04:52:14.110Z,11.62
2023-03-20T04:54:44.461Z,11.73
2023-03-20T04:57:12.436Z,11.72
2023-03-20T04:59:40.769Z,11.85
2023-03-20T05:02:08.295Z,11.84
2023-03-20T05:04:35.863Z,11.92
2023-03-20T05:07:03.347Z,11.80
2023-03-20T05:09:39.636Z,11.89
2023-03-20T05:12:09.776Z,11.90
2023-03-20T05:14:37.260Z,11.90
2023-03-20T05:17:24.998Z,11.85
2023-03-20T05:20:12.724Z,11.72
2023-03-20T05:23:06.233Z,11.76
2023-03-20T05:25:54.239Z,11.94
2023-03-20T05:28:53.908Z,12.07
2023-03-20T05:31:37.021Z,12.25
2023-03-20T05:34:18.796Z,12.29
2023-03-20T05:37:00.981Z,12.24
2023-03-20T05:39:56.644Z,12.12
2023-03-20T05:42:47.182Z,12.08
2023-03-20T05:45:27.048Z,12.17
2023-03-20T05:48:10.936Z,12.23
2023-03-20T05:50:49.136Z,12.19
2023-03-20T05:53:25.139Z,12.47
2023-03-20T05:56:12.321Z,12.49
2023-03-20T05:59:08.949Z,12.57
2023-03-20T06:01:47.719Z,12.69
2023-03-20T06:04:26.078Z,12.75
2023-03-20T06:07:11.781Z,12.78
2023-03-20T06:09:42.188Z,12.80
2023-03-20T06:12:12.809Z,12.93
2023-03-20T06:14:41.334Z,12.96
2023-03-20T06:17:09.610Z,13.01
2023-03-20T06:19:38.254Z,13.05
2023-03-20T06:22:06.612Z,13.06
2023-03-20T06:24:35.500Z,13.08
2023-03-20T06:27:02.804Z,13.19
2023-03-20T06:29:30.515Z,13.10
2023-03-20T06:32:09.008Z,13.11
2023-03-20T06:34:36.672Z,13.23
2023-03-20T06:37:04.024Z,13.27
2023-03-20T06:39:31.750Z,13.20
2023-03-20T06:41:59.103Z,13.21
2023-03-20T06:44:27.172Z,13.35
2023-03-20T06:47:14.630Z,13.37
2023-03-20T06:49:45.267Z,13.27
2023-03-20T06:52:18.026Z,13.40
2023-03-20T06:54:52.203Z,13.59
2023-03-20T06:57:20.179Z,13.71
2023-03-20T06:59:47.881Z,13.73
2023-03-20T07:02:16.398Z,13.80
2023-03-20T07:04:44.542Z,14.04
2023-03-20T07:07:11.800Z,14.16
2023-03-20T07:09:39.727Z,14.44
2023-03-20T07:12:14.544Z,14.52
2023-03-20T07:14:43.342Z,14.34
2023-03-20T07:17:15.125Z,14.32
2023-03-20T07:19:42.802Z,14.30
2023-03-20T07:22:20.910Z,14.38
2023-03-20T07:24:48.678Z,14.23
2023-03-20T07:27:17.979Z,14.11
2023-03-20T07:29:46.378Z,14.05
2023-03-20T07:32:17.181Z,14.13
2023-03-20T07:34:50.412Z,14.17
2023-03-20T07:37:19.935Z,14.19
2023-03-20T07:39:58.214Z,14.07
2023-03-20T07:42:31.463Z,14.02
2023-03-20T07:45:02.190Z,13.90
2023-03-20T07:47:30.614Z,13.74
2023-03-20T07:49:58.336Z,13.94
2023-03-20T07:52:25.842Z,13.96
2023-03-20T07:54:54.224Z,13.88
2023-03-20T07:57:21.618Z,14.04
2023-03-20T07:59:49.439Z,13.92
2023-03-20T08:02:17.794Z,13.96
2023-03-20T08:04:46.550Z,13.98
2023-03-20T08:07:13.999Z,13.89
2023-03-20T08:09:41.710Z,13.52
2023-03-20T08:12:09.069Z,13.76
2023-03-20T08:14:38.773Z,13.88
2023-03-20T08:17:15.056Z,13.83
2023-03-20T08:19:43.870Z,13.82
2023-03-20T08:22:11.094Z,14.04
2023-03-20T08:24:38.684Z,14.29
2023-03-20T08:27:05.918Z,14.95
2023-03-20T08:29:33.451Z,14.99
2023-03-20T08:32:00.961Z,15.70
2023-03-20T08:34:28.626Z,16.78
2023-03-20T08:36:56.080Z,17.70
2023-03-20T08:39:23.624Z,18.04
2023-03-20T08:41:51.243Z,18.59
2023-03-20T08:44:18.819Z,20.33
2023-03-20T08:46:46.741Z,22.56
2023-03-20T08:49:16.151Z,24.88
2023-03-20T08:51:43.375Z,24.84
2023-03-20T08:54:11.084Z,23.31
2023-03-20T08:56:38.438Z,23.79
2023-03-20T08:59:06.119Z,24.19
2023-03-20T09:01:48.287Z,25.16
2023-03-20T09:04:18.099Z,26.84
2023-03-20T09:06:45.545Z,27.60
2023-03-20T09:09:15.994Z,27.35
2023-03-20T09:11:43.367Z,27.31
2023-03-20T09:14:11.216Z,27.53
2023-03-20T09:16:38.583Z,27.99
2023-03-20T09:19:06.192Z,27.53
2023-03-20T09:21:36.517Z,26.57
2023-03-20T09:24:06.353Z,27.44
2023-03-20T09:26:33.863Z,24.98
2023-03-20T09:29:01.409Z,25.03
2023-03-20T09:31:28.782Z,26.32
2023-03-20T09:33:56.446Z,26.53
2023-03-20T09:36:23.763Z,27.96
2023-03-20T09:38:51.372Z,28.50
2023-03-20T09:41:22.609Z,28.11
2023-03-20T09:44:05.050Z,27.58
2023-03-20T09:46:49.416Z,22.22
2023-03-20T09:49:44.900Z,19.28
2023-03-20T09:52:27.458Z,18.72
2023-03-20T09:54:58.740Z,18.03
2023-03-20T09:57:30.403Z,18.03
2023-03-20T10:00:05.588Z,18.06
2023-03-20T10:03:01.256Z,17.65
2023-03-20T10:05:34.574Z,18.48
2023-03-20T10:08:04.812Z,20.26
2023-03-20T10:10:51.614Z,22.74
2023-03-20T10:13:30.559Z,24.44
2023-03-20T10:16:24.694Z,22.89
2023-03-20T10:19:21.841Z,23.08
2023-03-20T10:21:56.184Z,23.93
2023-03-20T10:24:32.292Z,23.46
2023-03-20T10:27:06.492Z,24.00
2023-03-20T10:30:03.606Z,22.93
2023-03-20T10:32:43.235Z,21.39
2023-03-20T10:35:37.795Z,19.16
2023-03-20T10:38:25.032Z,18.67
2023-03-20T10:40:54.109Z,17.96
2023-03-20T10:43:27.501Z,16.28
2023-03-20T10:46:04.533Z,15.26
2023-03-20T10:48:44.441Z,15.26
2023-03-20T10:51:16.516Z,15.58
2023-03-20T10:53:59.073Z,14.99
2023-03-20T10:56:47.881Z,15.65
2023-03-20T10:59:29.520Z,16.49
2023-03-20T11:01:56.958Z,16.77
2023-03-20T11:04:24.629Z,17.19
2023-03-20T11:07:03.434Z,16.98
2023-03-20T11:09:32.671Z,16.08
2023-03-20T11:12:02.356Z,15.92
2023-03-20T11:14:39.825Z,15.89
2023-03-20T11:17:07.506Z,15.75
2023-03-20T11:19:37.464Z,15.96
2023-03-20T11:22:31.359Z,16.01
2023-03-20T11:25:04.258Z,15.76
2023-03-20T11:27:35.978Z,15.15
2023-03-20T11:30:07.500Z,15.51
2023-03-20T11:32:39.739Z,15.61
2023-03-20T11:35:25.987Z,14.74
2023-03-20T11:37:55.902Z,14.78
2023-03-20T11:40:32.471Z,14.90
2023-03-20T11:43:04.260Z,14.64
2023-03-20T11:45:46.277Z,14.19
2023-03-20T11:48:20.125Z,14.10
2023-03-20T11:51:01.256Z,14.33
2023-03-20T11:53:36.027Z,14.49
2023-03-20T11:56:13.856Z,14.67
2023-03-20T11:59:03.011Z,14.45
2023-03-20T12:01:49.092Z,14.52
2023-03-20T12:04:43.044Z,14.22
2023-03-20T12:07:25.798Z,13.90
2023-03-20T12:10:04.844Z,13.86
2023-03-20T12:12:51.897Z,14.33
2023-03-20T12:15:38.948Z,14.17
2023-03-20T12:18:16.633Z,14.65
2023-03-20T12:20:54.139Z,14.93
2023-03-20T12:23:31.360Z,14.77
2023-03-20T12:26:11.435Z,15.01
2023-03-20T12:28:41.998Z,15.24
2023-03-20T12:31:36.064Z,14.58
2023-03-20T12:34:24.094Z,14.74
2023-03-20T12:36:57.661Z,15.56
2023-03-20T12:39:29.590Z,15.10
2023-03-20T12:42:35.647Z,15.66
2023-03-20T12:45:12.352Z,15.18
2023-03-20T12:48:01.367Z,15.63
2023-03-20T12:50:35.646Z,14.89
2023-03-20T12:53:33.711Z,14.59
2023-03-20T12:56:13.028Z,15.24
2023-03-20T12:58:59.171Z,14.90
2023-03-20T13:01:39.207Z,14.47
2023-03-20T13:04:38.112Z,14.21
2023-03-20T13:07:17.530Z,13.94
2023-03-20T13:10:05.820Z,14.33
2023-03-20T13:12:47.390Z,14.06
2023-03-20T13:15:31.797Z,13.10
2023-03-20T13:18:22.245Z,13.83
2023-03-20T13:20:56.197Z,14.33
2023-03-20T13:23:44.489Z,13.38
2023-03-20T13:26:30.736Z,12.96
2023-03-20T13:29:05.423Z,12.58
2023-03-20T13:31:57.629Z,12.24
2023-03-20T13:34:30.012Z,12.42
2023-03-20T13:37:25.757Z,11.74
2023-03-20T13:40:11.801Z,11.87
2023-03-20T13:42:45.954Z,11.93
2023-03-20T13:45:38.070Z,11.25
2023-03-20T13:48:20.320Z,11.70
2023-03-20T13:50:58.698Z,11.95
2023-03-20T13:53:46.233Z,11.88
2023-03-20T13:56:31.614Z,12.02
2023-03-20T13:59:43.692Z,11.97
2023-03-20T14:02:38.833Z,11.65
2023-03-20T14:05:22.982Z,11.82
2023-03-20T14:07:56.824Z,11.40
2023-03-20T14:10:24.316Z,11.27
2023-03-20T14:13:01.924Z,11.16
2023-03-20T14:15:37.052Z,11.46
2023-03-20T14:18:17.053Z,11.15
2023-03-20T14:20:56.806Z,11.24
2023-03-20T14:23:35.242Z,11.23
2023-03-20T14:26:26.386Z,11.23
2023-03-20T14:28:59.152Z,11.17
2023-03-20T14:31:37.800Z,10.84
2023-03-20T14:34:14.075Z,11.01
2023-03-20T14:37:03.697Z,10.69
2023-03-20T14:40:20.155Z,11.10
2023-03-20T14:42:57.919Z,10.93
2023-03-20T14:45:37.308Z,10.97
2023-03-20T14:48:27.115Z,11.01
2023-03-20T14:51:46.010Z,10.39
2023-03-20T14:54:25.984Z,10.52
2023-03-20T14:56:54.007Z,10.87
2023-03-20T14:59:23.462Z,11.08
2023-03-20T15:01:59.188Z,11.50
2023-03-20T15:04:39.403Z,11.40
2023-03-20T15:07:15.893Z,11.92
2023-03-20T15:09:49.070Z,11.96
2023-03-20T15:12:29.187Z,12.05
2023-03-20T15:15:03.344Z,11.93
2023-03-20T15:17:40.164Z,11.70
2023-03-20T15:20:17.911Z,11.80
2023-03-20T15:22:57.712Z,11.80
2023-03-20T15:25:49.288Z,11.42
2023-03-20T15:28:21.431Z,11.59
2023-03-20T15:30:49.457Z,11.77
2023-03-20T15:33:41.871Z,11.66
2023-03-20T15:36:15.733Z,11.65
2023-03-20T15:38:44.410Z,11.64
2023-03-20T15:41:34.419Z,11.69
2023-03-20T15:44:23.352Z,11.65
2023-03-20T15:47:00.564Z,11.38
2023-03-20T15:49:31.029Z,11.50
2023-03-20T15:52:07.230Z,11.61
2023-03-20T15:54:37.547Z,11.58
2023-03-20T15:57:05.554Z,11.38
2023-03-20T15:59:34.485Z,11.30
2023-03-20T16:02:02.433Z,11.41
2023-03-20T16:04:30.445Z,11.42
2023-03-20T16:07:00.543Z,11.24
2023-03-20T16:09:28.701Z,11.22
2023-03-20T16:11:57.604Z,11.28
2023-03-20T16:14:28.777Z,11.01
2023-03-20T16:16:59.090Z,10.85
2023-03-20T16:19:29.053Z,11.11
2023-03-20T16:22:11.754Z,10.53
2023-03-20T16:24:40.503Z,10.57
2023-03-20T16:27:09.956Z,10.46
2023-03-20T16:29:42.934Z,10.14
2023-03-20T16:32:34.277Z,10.27
2023-03-20T16:35:06.212Z,10.35
2023-03-20T16:37:42.974Z,10.18
2023-03-20T16:40:36.847Z,10.21
2023-03-20T16:43:14.548Z,10.43
2023-03-20T16:45:45.718Z,10.39
2023-03-20T16:48:13.072Z,10.54
2023-03-20T16:50:43.311Z,10.06
2023-03-20T16:53:12.969Z,10.06
2023-03-20T16:55:46.714Z,10.28
2023-03-20T16:58:21.134Z,10.26
2023-03-20T17:00:53.205Z,10.22
2023-03-20T17:03:27.754Z,10.44
2023-03-20T17:05:57.183Z,10.10
2023-03-20T17:08:48.287Z,9.86
2023-03-20T17:11:34.466Z,9.69
2023-03-20T17:14:03.618Z,9.96
2023-03-20T17:16:33.251Z,9.89
2023-03-20T17:19:04.487Z,9.84
2023-03-20T17:21:32.087Z,9.66
2023-03-20T17:23:59.523Z,9.85
2023-03-20T17:26:27.218Z,9.65
2023-03-20T17:28:55.325Z,9.41
2023-03-20T17:31:22.964Z,9.73
2023-03-20T17:33:50.582Z,9.61
2023-03-20T17:36:24.417Z,9.49
2023-03-20T17:38:51.739Z,9.50
2023-03-20T17:41:20.822Z,9.55
2023-03-20T17:43:48.431Z,9.67
2023-03-20T17:46:21.963Z,9.92
2023-03-20T17:48:50.438Z,9.75
2023-03-20T17:51:17.953Z,9.68
2023-03-20T17:53:45.375Z,9.75
2023-03-20T17:56:15.369Z,9.43
2023-03-20T17:58:45.837Z,9.69
2023-03-20T18:01:14.069Z,9.76
2023-03-20T18:03:41.862Z,9.78
2023-03-20T18:06:25.325Z,9.58
2023-03-20T18:08:53.039Z,9.66
2023-03-20T18:11:21.130Z,9.69
2023-03-20T18:13:48.456Z,9.52
2023-03-20T18:16:27.051Z,9.64
2023-03-20T18:18:54.973Z,9.68
2023-03-20T18:21:22.555Z,9.70
2023-03-20T18:23:49.926Z,9.37
2023-03-20T18:26:21.014Z,9.41
2023-03-20T18:28:49.468Z,9.09
2023-03-20T18:31:19.159Z,8.95
2023-03-20T18:33:51.680Z,8.90
2023-03-20T18:36:24.350Z,9.11
2023-03-20T18:38:52.555Z,9.15
2023-03-20T18:41:20.747Z,9.07
2023-03-20T18:43:48.470Z,9.25
2023-03-20T18:46:21.070Z,9.08
2023-03-20T18:48:50.040Z,9.23
2023-03-20T18:51:18.345Z,9.32
2023-03-20T18:53:46.264Z,9.05
2023-03-20T18:56:15.788Z,9.00
2023-03-20T18:58:43.507Z,9.20
2023-03-20T19:01:15.674Z,8.88
2023-03-20T19:03:44.242Z,9.19
2023-03-20T19:06:23.185Z,9.18
2023-03-20T19:08:51.423Z,9.28
2023-03-20T19:11:21.579Z,9.14
2023-03-20T19:13:52.531Z,9.16
2023-03-20T19:16:26.600Z,9.24
2023-03-20T19:18:56.255Z,9.29
2023-03-20T19:21:27.054Z,9.43
2023-03-20T19:24:03.442Z,9.56
2023-03-20T19:26:32.312Z,9.36
2023-03-20T19:29:01.272Z,9.29
2023-03-20T19:31:29.269Z,9.45
2023-03-20T19:33:56.943Z,9.14
2023-03-20T19:36:34.598Z,9.17
2023-03-20T19:39:04.233Z,9.07
2023-03-20T19:41:32.545Z,8.83
2023-03-20T19:44:01.471Z,8.99
2023-03-20T19:46:40.369Z,9.12
2023-03-20T19:49:20.416Z,9.15
2023-03-20T19:51:49.796Z,8.87
2023-03-20T19:54:17.410Z,8.76
2023-03-20T19:56:44.909Z,8.70
2023-03-20T19:59:16.005Z,9.02
2023-03-20T20:01:45.591Z,9.15
2023-03-20T20:04:13.433Z,9.06
2023-03-20T20:06:41.881Z,8.99
2023-03-20T20:09:09.337Z,9.13
2023-03-20T20:11:36.926Z,9.24
2023-03-20T20:14:08.473Z,8.76
2023-03-20T20:16:39.215Z,8.85
2023-03-20T20:19:06.800Z,8.63
2023-03-20T20:24:21.880Z,8.99
2023-03-20T20:27:00.076Z,8.73
2023-03-20T20:29:34.656Z,9.10
2023-03-20T20:32:02.321Z,8.79
2023-03-20T20:40:07.062Z,8.97
2023-03-20T20:42:35.034Z,8.89
2023-03-20T20:45:02.339Z,9.01
2023-03-20T20:47:30.001Z,9.07
2023-03-20T20:49:57.901Z,8.99
2023-03-20T20:52:25.448Z,9.09
2023-03-20T20:54:52.722Z,9.28
2023-03-20T20:57:20.375Z,9.14
2023-03-20T20:59:47.598Z,9.31
2023-03-20T21:02:17.542Z,9.39
2023-03-20T21:04:45.487Z,9.43
2023-03-20T21:07:13.804Z,9.31
2023-03-20T21:09:41.341Z,9.33
2023-03-20T21:12:10.727Z,9.08
2023-03-20T21:14:40.754Z,8.77
2023-03-20T21:17:09.932Z,9.09
2023-03-20T21:19:42.149Z,8.74
2023-03-20T21:22:13.390Z,8.32
2023-03-20T21:24:41.347Z,8.84
2023-03-20T21:27:13.958Z,8.69
2023-03-20T21:29:43.232Z,8.84
2023-03-20T21:32:12.918Z,8.58
2023-03-20T21:34:41.078Z,8.74
2023-03-20T21:38:13.195Z,8.61
2023-03-20T21:39:58.539Z,8.89
2023-03-20T21:42:26.431Z,8.92
2023-03-20T21:45:44.687Z,9.00
2023-03-20T21:50:55.524Z,9.19
2023-03-20T21:59:33.126Z,8.78
2023-03-20T22:02:01.580Z,8.75
2023-03-20T22:07:45.028Z,9.07
2023-03-20T22:30:40.747Z,9.12
2023-03-20T22:46:45.214Z,8.91
2023-03-20T22:49:09.622Z,8.79
2023-03-20T22:51:43.981Z,8.98
2023-03-20T22:54:19.832Z,9.07
2023-03-20T22:56:47.097Z,8.93
2023-03-20T22:59:14.594Z,8.93
2023-03-20T23:01:41.859Z,8.99
2023-03-20T23:04:09.453Z,9.11
2023-03-20T23:06:36.680Z,8.82
2023-03-20T23:09:14.537Z,8.95
2023-03-20T23:12:00.579Z,8.95
2023-03-20T23:14:46.490Z,8.89
2023-03-20T23:17:13.915Z,8.82
2023-03-20T23:19:49.189Z,8.92
2023-03-20T23:22:19.368Z,8.86
2023-03-20T23:24:47.013Z,8.88
2023-03-20T23:27:14.251Z,8.78
2023-03-20T23:29:41.825Z,8.93
2023-03-20T23:32:09.044Z,8.64
2023-03-20T23:34:37.509Z,8.56
2023-03-20T23:37:04.769Z,8.80
2023-03-20T23:39:32.276Z,8.75
2023-03-20T23:42:12.123Z,8.99
2023-03-20T23:44:53.541Z,8.87
2023-03-20T23:47:25.568Z,8.95
2023-03-20T23:49:53.279Z,9.12
2023-03-20T23:52:20.753Z,8.97
2023-03-20T23:54:48.321Z,8.89
2023-03-20T23:57:15.833Z,9.05
2023-03-20T23:59:43.825Z,8.90
